sensor_id;sensor_type;location;lat;lon;timestamp;P1;durP1;ratioP1;P2;durP2;ratioP2
71490;SDS011;59307;50.060;9.150;2023-05-10T00:02:18;4.87;;;3.10;;
71490;SDS011;59307;50.060;9.150;2023-05-10T00:04:43;5.80;;;3.37;;
71490;SDS011;59307;50.060;9.150;2023-05-10T00:07:08;3.13;;;2.23;;
71490;SDS011;59307;50.060;9.150;2023-05-10T00:09:33;2.23;;;1.30;;
71490;SDS011;59307;50.060;9.150;2023-05-10T00:11:58;1.20;;;0.90;;
71490;SDS011;59307;50.060;9.150;2023-05-10T00:14:24;2.07;;;1.17;;
71490;SDS011;59307;50.060;9.150;2023-05-10T00:16:49;1.27;;;1.00;;
71490;SDS011;59307;50.060;9.150;2023-05-10T00:19:14;1.90;;;1.07;;
71490;SDS011;59307;50.060;9.150;2023-05-10T00:21:40;1.20;;;0.90;;
71490;SDS011;59307;50.060;9.150;2023-05-10T00:24:05;1.67;;;1.20;;
71490;SDS011;59307;50.060;9.150;2023-05-10T00:26:30;1.33;;;1.00;;
71490;SDS011;59307;50.060;9.150;2023-05-10T00:28:55;1.87;;;1.00;;
71490;SDS011;59307;50.060;9.150;2023-05-10T00:31:21;1.50;;;1.00;;
71490;SDS011;59307;50.060;9.150;2023-05-10T00:33:47;2.23;;;1.00;;
71490;SDS011;59307;50.060;9.150;2023-05-10T00:36:12;2.10;;;0.90;;
71490;SDS011;59307;50.060;9.150;2023-05-10T00:38:37;0.77;;;0.70;;
71490;SDS011;59307;50.060;9.150;2023-05-10T00:41:03;2.75;;;0.75;;
71490;SDS011;59307;50.060;9.150;2023-05-10T00:43:28;1.93;;;0.70;;
71490;SDS011;59307;50.060;9.150;2023-05-10T00:45:53;3.93;;;0.70;;
71490;SDS011;59307;50.060;9.150;2023-05-10T00:48:19;1.33;;;0.90;;
71490;SDS011;59307;50.060;9.150;2023-05-10T00:50:44;1.35;;;0.77;;
71490;SDS011;59307;50.060;9.150;2023-05-10T00:53:10;1.30;;;0.60;;
71490;SDS011;59307;50.060;9.150;2023-05-10T00:55:35;2.10;;;0.67;;
71490;SDS011;59307;50.060;9.150;2023-05-10T00:58:00;1.07;;;0.50;;
71490;SDS011;59307;50.060;9.150;2023-05-10T01:00:26;1.25;;;0.68;;
71490;SDS011;59307;50.060;9.150;2023-05-10T01:02:52;0.97;;;0.60;;
71490;SDS011;59307;50.060;9.150;2023-05-10T01:05:18;0.60;;;0.60;;
71490;SDS011;59307;50.060;9.150;2023-05-10T01:07:43;2.20;;;0.70;;
71490;SDS011;59307;50.060;9.150;2023-05-10T01:10:08;1.00;;;0.60;;
71490;SDS011;59307;50.060;9.150;2023-05-10T01:12:35;1.27;;;0.60;;
71490;SDS011;59307;50.060;9.150;2023-05-10T01:15:02;2.50;;;0.80;;
71490;SDS011;59307;50.060;9.150;2023-05-10T01:17:27;0.60;;;0.60;;
71490;SDS011;59307;50.060;9.150;2023-05-10T01:19:52;1.00;;;0.70;;
71490;SDS011;59307;50.060;9.150;2023-05-10T01:33:00;1.20;;;0.80;;
71490;SDS011;59307;50.060;9.150;2023-05-10T01:40:26;1.00;;;0.80;;
71490;SDS011;59307;50.060;9.150;2023-05-10T01:42:56;1.43;;;0.93;;
71490;SDS011;59307;50.060;9.150;2023-05-10T01:45:36;4.43;;;0.90;;
71490;SDS011;59307;50.060;9.150;2023-05-10T01:48:06;0.80;;;0.80;;
71490;SDS011;59307;50.060;9.150;2023-05-10T01:50:32;1.90;;;0.75;;
71490;SDS011;59307;50.060;9.150;2023-05-10T01:52:59;1.50;;;0.90;;
71490;SDS011;59307;50.060;9.150;2023-05-10T01:55:27;1.63;;;1.20;;
71490;SDS011;59307;50.060;9.150;2023-05-10T01:57:56;2.50;;;1.00;;
71490;SDS011;59307;50.060;9.150;2023-05-10T02:00:23;1.08;;;0.98;;
71490;SDS011;59307;50.060;9.150;2023-05-10T02:02:49;0.90;;;0.80;;
71490;SDS011;59307;50.060;9.150;2023-05-10T02:05:16;0.88;;;0.80;;
71490;SDS011;59307;50.060;9.150;2023-05-10T02:07:41;1.50;;;1.00;;
71490;SDS011;59307;50.060;9.150;2023-05-10T02:10:07;1.07;;;0.83;;
71490;SDS011;59307;50.060;9.150;2023-05-10T02:12:37;2.70;;;0.90;;
71490;SDS011;59307;50.060;9.150;2023-05-10T02:15:04;3.10;;;1.00;;
71490;SDS011;59307;50.060;9.150;2023-05-10T02:17:30;2.55;;;0.80;;
71490;SDS011;59307;50.060;9.150;2023-05-10T02:19:56;1.13;;;0.87;;
71490;SDS011;59307;50.060;9.150;2023-05-10T02:22:22;3.27;;;1.10;;
71490;SDS011;59307;50.060;9.150;2023-05-10T02:24:48;1.05;;;0.95;;
71490;SDS011;59307;50.060;9.150;2023-05-10T02:27:14;1.95;;;1.10;;
71490;SDS011;59307;50.060;9.150;2023-05-10T02:29:40;1.40;;;0.77;;
71490;SDS011;59307;50.060;9.150;2023-05-10T02:32:06;1.80;;;1.00;;
71490;SDS011;59307;50.060;9.150;2023-05-10T02:34:33;1.53;;;1.00;;
71490;SDS011;59307;50.060;9.150;2023-05-10T02:36:59;1.30;;;1.00;;
71490;SDS011;59307;50.060;9.150;2023-05-10T02:39:24;1.20;;;1.00;;
71490;SDS011;59307;50.060;9.150;2023-05-10T02:41:51;3.60;;;1.17;;
71490;SDS011;59307;50.060;9.150;2023-05-10T02:44:19;1.80;;;1.10;;
71490;SDS011;59307;50.060;9.150;2023-05-10T02:46:45;2.53;;;1.30;;
71490;SDS011;59307;50.060;9.150;2023-05-10T02:49:10;3.77;;;1.00;;
71490;SDS011;59307;50.060;9.150;2023-05-10T02:51:37;1.65;;;1.38;;
71490;SDS011;59307;50.060;9.150;2023-05-10T02:54:12;1.33;;;1.10;;
71490;SDS011;59307;50.060;9.150;2023-05-10T02:56:42;1.45;;;0.93;;
71490;SDS011;59307;50.060;9.150;2023-05-10T02:59:11;2.08;;;1.30;;
71490;SDS011;59307;50.060;9.150;2023-05-10T03:01:36;1.63;;;1.27;;
71490;SDS011;59307;50.060;9.150;2023-05-10T03:04:01;6.03;;;1.50;;
71490;SDS011;59307;50.060;9.150;2023-05-10T03:06:26;1.80;;;1.30;;
71490;SDS011;59307;50.060;9.150;2023-05-10T03:08:51;2.17;;;1.50;;
71490;SDS011;59307;50.060;9.150;2023-05-10T03:16:27;1.23;;;1.07;;
71490;SDS011;59307;50.060;9.150;2023-05-10T03:19:08;2.65;;;1.73;;
71490;SDS011;59307;50.060;9.150;2023-05-10T03:21:36;3.47;;;1.80;;
71490;SDS011;59307;50.060;9.150;2023-05-10T03:24:07;2.50;;;1.57;;
71490;SDS011;59307;50.060;9.150;2023-05-10T03:26:32;3.03;;;1.60;;
71490;SDS011;59307;50.060;9.150;2023-05-10T03:28:58;6.60;;;1.95;;
71490;SDS011;59307;50.060;9.150;2023-05-10T03:31:24;2.88;;;1.80;;
71490;SDS011;59307;50.060;9.150;2023-05-10T03:33:50;3.00;;;1.60;;
71490;SDS011;59307;50.060;9.150;2023-05-10T03:36:15;5.53;;;1.70;;
71490;SDS011;59307;50.060;9.150;2023-05-10T03:38:41;2.15;;;1.45;;
71490;SDS011;59307;50.060;9.150;2023-05-10T03:41:06;2.10;;;1.70;;
71490;SDS011;59307;50.060;9.150;2023-05-10T03:43:31;4.03;;;1.83;;
71490;SDS011;59307;50.060;9.150;2023-05-10T03:45:56;3.03;;;1.70;;
71490;SDS011;59307;50.060;9.150;2023-05-10T03:48:21;4.20;;;1.80;;
71490;SDS011;59307;50.060;9.150;2023-05-10T03:50:46;3.30;;;2.00;;
71490;SDS011;59307;50.060;9.150;2023-05-10T03:53:12;2.40;;;1.90;;
71490;SDS011;59307;50.060;9.150;2023-05-10T03:55:37;2.37;;;1.80;;
71490;SDS011;59307;50.060;9.150;2023-05-10T03:58:02;3.63;;;1.80;;
71490;SDS011;59307;50.060;9.150;2023-05-10T04:00:27;4.13;;;1.80;;
71490;SDS011;59307;50.060;9.150;2023-05-10T04:02:53;3.20;;;2.00;;
71490;SDS011;59307;50.060;9.150;2023-05-10T04:05:18;5.03;;;2.23;;
71490;SDS011;59307;50.060;9.150;2023-05-10T04:07:43;2.90;;;2.10;;
71490;SDS011;59307;50.060;9.150;2023-05-10T04:10:09;3.03;;;2.10;;
71490;SDS011;59307;50.060;9.150;2023-05-10T04:12:34;3.30;;;2.10;;
71490;SDS011;59307;50.060;9.150;2023-05-10T04:14:59;3.90;;;1.77;;
71490;SDS011;59307;50.060;9.150;2023-05-10T04:17:25;3.57;;;2.10;;
71490;SDS011;59307;50.060;9.150;2023-05-10T04:19:50;2.53;;;1.93;;
71490;SDS011;59307;50.060;9.150;2023-05-10T04:22:17;8.73;;;2.88;;
71490;SDS011;59307;50.060;9.150;2023-05-10T04:24:43;4.47;;;2.40;;
71490;SDS011;59307;50.060;9.150;2023-05-10T04:27:08;3.03;;;2.00;;
71490;SDS011;59307;50.060;9.150;2023-05-10T04:29:33;3.33;;;1.80;;
71490;SDS011;59307;50.060;9.150;2023-05-10T04:31:58;2.87;;;1.87;;
71490;SDS011;59307;50.060;9.150;2023-05-10T04:34:23;3.47;;;2.00;;
71490;SDS011;59307;50.060;9.150;2023-05-10T04:36:49;2.20;;;1.70;;
71490;SDS011;59307;50.060;9.150;2023-05-10T04:39:14;2.30;;;1.70;;
71490;SDS011;59307;50.060;9.150;2023-05-10T04:41:39;3.17;;;1.60;;
71490;SDS011;59307;50.060;9.150;2023-05-10T04:44:04;2.30;;;1.70;;
71490;SDS011;59307;50.060;9.150;2023-05-10T04:46:30;3.67;;;1.80;;
71490;SDS011;59307;50.060;9.150;2023-05-10T04:48:55;4.67;;;1.90;;
71490;SDS011;59307;50.060;9.150;2023-05-10T04:51:20;4.40;;;2.10;;
71490;SDS011;59307;50.060;9.150;2023-05-10T04:53:45;4.30;;;2.40;;
71490;SDS011;59307;50.060;9.150;2023-05-10T04:56:10;7.40;;;2.60;;
71490;SDS011;59307;50.060;9.150;2023-05-10T04:58:35;3.00;;;2.23;;
71490;SDS011;59307;50.060;9.150;2023-05-10T05:01:07;3.50;;;2.53;;
71490;SDS011;59307;50.060;9.150;2023-05-10T05:03:36;7.28;;;2.90;;
71490;SDS011;59307;50.060;9.150;2023-05-10T05:06:01;5.20;;;3.13;;
71490;SDS011;59307;50.060;9.150;2023-05-10T05:08:26;4.23;;;2.50;;
71490;SDS011;59307;50.060;9.150;2023-05-10T05:10:51;4.07;;;2.87;;
71490;SDS011;59307;50.060;9.150;2023-05-10T05:13:17;5.83;;;3.03;;
71490;SDS011;59307;50.060;9.150;2023-05-10T05:15:42;6.80;;;3.17;;
71490;SDS011;59307;50.060;9.150;2023-05-10T05:18:07;6.07;;;3.07;;
71490;SDS011;59307;50.060;9.150;2023-05-10T05:20:33;4.37;;;2.97;;
71490;SDS011;59307;50.060;9.150;2023-05-10T05:22:59;5.57;;;2.78;;
71490;SDS011;59307;50.060;9.150;2023-05-10T05:25:24;4.17;;;3.00;;
71490;SDS011;59307;50.060;9.150;2023-05-10T05:27:49;4.60;;;3.00;;
71490;SDS011;59307;50.060;9.150;2023-05-10T05:30:14;4.90;;;3.30;;
71490;SDS011;59307;50.060;9.150;2023-05-10T05:32:39;4.77;;;3.00;;
71490;SDS011;59307;50.060;9.150;2023-05-10T05:35:05;5.63;;;3.10;;
71490;SDS011;59307;50.060;9.150;2023-05-10T05:37:30;6.47;;;3.20;;
71490;SDS011;59307;50.060;9.150;2023-05-10T05:39:56;7.38;;;3.75;;
71490;SDS011;59307;50.060;9.150;2023-05-10T05:42:21;5.27;;;3.13;;
71490;SDS011;59307;50.060;9.150;2023-05-10T05:44:47;5.77;;;3.10;;
71490;SDS011;59307;50.060;9.150;2023-05-10T05:47:12;4.50;;;2.90;;
71490;SDS011;59307;50.060;9.150;2023-05-10T05:49:37;9.73;;;3.83;;
71490;SDS011;59307;50.060;9.150;2023-05-10T05:52:03;5.00;;;3.30;;
71490;SDS011;59307;50.060;9.150;2023-05-10T05:54:28;5.50;;;3.05;;
71490;SDS011;59307;50.060;9.150;2023-05-10T05:56:54;4.73;;;2.80;;
71490;SDS011;59307;50.060;9.150;2023-05-10T05:59:20;5.90;;;3.45;;
71490;SDS011;59307;50.060;9.150;2023-05-10T06:01:45;4.90;;;3.00;;
71490;SDS011;59307;50.060;9.150;2023-05-10T06:04:10;5.77;;;3.17;;
71490;SDS011;59307;50.060;9.150;2023-05-10T06:06:36;4.88;;;3.15;;
71490;SDS011;59307;50.060;9.150;2023-05-10T06:09:01;5.97;;;3.20;;
71490;SDS011;59307;50.060;9.150;2023-05-10T06:11:26;6.83;;;3.23;;
71490;SDS011;59307;50.060;9.150;2023-05-10T06:13:51;6.60;;;2.90;;
71490;SDS011;59307;50.060;9.150;2023-05-10T06:16:17;6.40;;;2.90;;
71490;SDS011;59307;50.060;9.150;2023-05-10T06:18:42;6.97;;;3.50;;
71490;SDS011;59307;50.060;9.150;2023-05-10T06:21:07;6.20;;;3.10;;
71490;SDS011;59307;50.060;9.150;2023-05-10T06:23:33;7.73;;;3.20;;
71490;SDS011;59307;50.060;9.150;2023-05-10T06:25:58;5.47;;;2.90;;
71490;SDS011;59307;50.060;9.150;2023-05-10T06:28:23;5.73;;;3.30;;
71490;SDS011;59307;50.060;9.150;2023-05-10T06:30:48;5.18;;;3.00;;
71490;SDS011;59307;50.060;9.150;2023-05-10T06:33:14;7.40;;;3.33;;
71490;SDS011;59307;50.060;9.150;2023-05-10T06:35:40;7.40;;;3.27;;
71490;SDS011;59307;50.060;9.150;2023-05-10T06:38:06;5.07;;;3.20;;
71490;SDS011;59307;50.060;9.150;2023-05-10T06:40:31;6.67;;;3.80;;
71490;SDS011;59307;50.060;9.150;2023-05-10T06:42:56;6.07;;;3.53;;
71490;SDS011;59307;50.060;9.150;2023-05-10T06:45:21;6.67;;;3.27;;
71490;SDS011;59307;50.060;9.150;2023-05-10T06:47:46;8.03;;;3.77;;
71490;SDS011;59307;50.060;9.150;2023-05-10T06:50:12;8.70;;;3.47;;
71490;SDS011;59307;50.060;9.150;2023-05-10T06:52:37;5.77;;;3.20;;
71490;SDS011;59307;50.060;9.150;2023-05-10T06:55:05;6.57;;;3.10;;
71490;SDS011;59307;50.060;9.150;2023-05-10T06:57:31;6.87;;;3.10;;
71490;SDS011;59307;50.060;9.150;2023-05-10T06:59:56;7.20;;;3.40;;
71490;SDS011;59307;50.060;9.150;2023-05-10T07:02:21;6.97;;;3.07;;
71490;SDS011;59307;50.060;9.150;2023-05-10T07:04:47;6.10;;;2.87;;
71490;SDS011;59307;50.060;9.150;2023-05-10T07:07:13;5.07;;;3.03;;
71490;SDS011;59307;50.060;9.150;2023-05-10T07:09:38;7.65;;;3.38;;
71490;SDS011;59307;50.060;9.150;2023-05-10T07:12:03;5.03;;;3.30;;
71490;SDS011;59307;50.060;9.150;2023-05-10T07:14:29;5.63;;;3.03;;
71490;SDS011;59307;50.060;9.150;2023-05-10T07:16:54;5.83;;;3.07;;
71490;SDS011;59307;50.060;9.150;2023-05-10T07:19:19;5.43;;;2.83;;
71490;SDS011;59307;50.060;9.150;2023-05-10T07:21:44;9.90;;;3.00;;
71490;SDS011;59307;50.060;9.150;2023-05-10T07:24:09;5.50;;;2.60;;
71490;SDS011;59307;50.060;9.150;2023-05-10T07:26:35;6.43;;;2.73;;
71490;SDS011;59307;50.060;9.150;2023-05-10T07:29:00;5.40;;;3.03;;
71490;SDS011;59307;50.060;9.150;2023-05-10T07:31:26;6.00;;;2.80;;
71490;SDS011;59307;50.060;9.150;2023-05-10T07:33:51;9.07;;;3.20;;
71490;SDS011;59307;50.060;9.150;2023-05-10T07:36:16;5.17;;;2.80;;
71490;SDS011;59307;50.060;9.150;2023-05-10T07:38:41;7.70;;;2.93;;
71490;SDS011;59307;50.060;9.150;2023-05-10T07:41:06;5.13;;;2.87;;
71490;SDS011;59307;50.060;9.150;2023-05-10T07:43:32;8.87;;;3.20;;
71490;SDS011;59307;50.060;9.150;2023-05-10T07:45:57;6.40;;;2.77;;
71490;SDS011;59307;50.060;9.150;2023-05-10T07:48:24;5.97;;;2.28;;
71490;SDS011;59307;50.060;9.150;2023-05-10T07:50:49;7.03;;;2.77;;
71490;SDS011;59307;50.060;9.150;2023-05-10T07:53:14;5.90;;;2.60;;
71490;SDS011;59307;50.060;9.150;2023-05-10T07:55:40;8.13;;;3.10;;
71490;SDS011;59307;50.060;9.150;2023-05-10T07:58:05;6.20;;;2.87;;
71490;SDS011;59307;50.060;9.150;2023-05-10T08:00:30;5.53;;;2.73;;
71490;SDS011;59307;50.060;9.150;2023-05-10T08:02:55;5.93;;;2.80;;
71490;SDS011;59307;50.060;9.150;2023-05-10T08:05:20;6.67;;;2.73;;
71490;SDS011;59307;50.060;9.150;2023-05-10T08:07:46;7.90;;;2.77;;
71490;SDS011;59307;50.060;9.150;2023-05-10T08:10:11;4.40;;;2.53;;
71490;SDS011;59307;50.060;9.150;2023-05-10T08:12:36;5.40;;;2.83;;
71490;SDS011;59307;50.060;9.150;2023-05-10T08:15:01;11.33;;;3.20;;
71490;SDS011;59307;50.060;9.150;2023-05-10T08:17:27;6.00;;;3.07;;
71490;SDS011;59307;50.060;9.150;2023-05-10T08:19:52;9.43;;;2.83;;
71490;SDS011;59307;50.060;9.150;2023-05-10T08:22:17;5.60;;;2.80;;
71490;SDS011;59307;50.060;9.150;2023-05-10T08:24:42;5.40;;;3.07;;
71490;SDS011;59307;50.060;9.150;2023-05-10T08:27:08;7.77;;;2.90;;
71490;SDS011;59307;50.060;9.150;2023-05-10T08:29:33;6.32;;;2.88;;
71490;SDS011;59307;50.060;9.150;2023-05-10T08:31:58;6.47;;;2.87;;
71490;SDS011;59307;50.060;9.150;2023-05-10T08:34:25;8.18;;;2.92;;
71490;SDS011;59307;50.060;9.150;2023-05-10T08:36:51;6.70;;;2.87;;
71490;SDS011;59307;50.060;9.150;2023-05-10T08:39:16;8.70;;;2.93;;
71490;SDS011;59307;50.060;9.150;2023-05-10T08:41:41;5.80;;;2.80;;
71490;SDS011;59307;50.060;9.150;2023-05-10T08:44:08;10.00;;;2.70;;
71490;SDS011;59307;50.060;9.150;2023-05-10T08:46:34;3.97;;;2.50;;
71490;SDS011;59307;50.060;9.150;2023-05-10T08:49:03;5.63;;;2.70;;
71490;SDS011;59307;50.060;9.150;2023-05-10T08:51:29;6.40;;;2.40;;
71490;SDS011;59307;50.060;9.150;2023-05-10T08:53:57;5.77;;;2.40;;
71490;SDS011;59307;50.060;9.150;2023-05-10T08:56:22;7.07;;;2.90;;
71490;SDS011;59307;50.060;9.150;2023-05-10T08:58:48;5.67;;;3.10;;
71490;SDS011;59307;50.060;9.150;2023-05-10T09:01:14;7.10;;;2.60;;
71490;SDS011;59307;50.060;9.150;2023-05-10T09:03:41;7.70;;;3.10;;
71490;SDS011;59307;50.060;9.150;2023-05-10T09:06:06;6.33;;;2.60;;
71490;SDS011;59307;50.060;9.150;2023-05-10T09:08:31;8.53;;;2.77;;
71490;SDS011;59307;50.060;9.150;2023-05-10T09:10:57;3.80;;;2.50;;
71490;SDS011;59307;50.060;9.150;2023-05-10T09:13:22;4.90;;;2.53;;
71490;SDS011;59307;50.060;9.150;2023-05-10T09:15:48;4.33;;;2.47;;
71490;SDS011;59307;50.060;9.150;2023-05-10T09:18:13;10.03;;;3.03;;
71490;SDS011;59307;50.060;9.150;2023-05-10T09:20:38;6.17;;;2.70;;
71490;SDS011;59307;50.060;9.150;2023-05-10T09:23:04;5.67;;;2.60;;
71490;SDS011;59307;50.060;9.150;2023-05-10T09:25:29;8.35;;;2.40;;
71490;SDS011;59307;50.060;9.150;2023-05-10T09:27:55;4.33;;;2.53;;
71490;SDS011;59307;50.060;9.150;2023-05-10T09:32:48;6.75;;;2.55;;
71490;SDS011;59307;50.060;9.150;2023-05-10T09:35:15;3.72;;;2.20;;
71490;SDS011;59307;50.060;9.150;2023-05-10T09:37:42;3.92;;;2.33;;
71490;SDS011;59307;50.060;9.150;2023-05-10T09:40:08;3.90;;;2.43;;
71490;SDS011;59307;50.060;9.150;2023-05-10T09:42:35;5.18;;;2.28;;
71490;SDS011;59307;50.060;9.150;2023-05-10T09:45:02;4.20;;;2.10;;
71490;SDS011;59307;50.060;9.150;2023-05-10T09:47:27;4.25;;;2.28;;
71490;SDS011;59307;50.060;9.150;2023-05-10T09:49:52;4.63;;;2.40;;
71490;SDS011;59307;50.060;9.150;2023-05-10T09:52:20;2.92;;;2.15;;
71490;SDS011;59307;50.060;9.150;2023-05-10T09:54:45;4.03;;;2.30;;
71490;SDS011;59307;50.060;9.150;2023-05-10T09:57:20;3.45;;;2.00;;
71490;SDS011;59307;50.060;9.150;2023-05-10T09:59:46;5.28;;;2.20;;
71490;SDS011;59307;50.060;9.150;2023-05-10T10:02:11;3.27;;;2.27;;
71490;SDS011;59307;50.060;9.150;2023-05-10T10:04:40;2.40;;;1.93;;
71490;SDS011;59307;50.060;9.150;2023-05-10T10:07:05;5.13;;;2.30;;
71490;SDS011;59307;50.060;9.150;2023-05-10T10:09:31;7.57;;;2.20;;
71490;SDS011;59307;50.060;9.150;2023-05-10T10:11:56;3.57;;;2.30;;
71490;SDS011;59307;50.060;9.150;2023-05-10T10:14:22;2.43;;;2.03;;
71490;SDS011;59307;50.060;9.150;2023-05-10T10:16:48;3.20;;;1.80;;
71490;SDS011;59307;50.060;9.150;2023-05-10T10:19:14;2.42;;;1.55;;
71490;SDS011;59307;50.060;9.150;2023-05-10T10:21:40;3.00;;;1.52;;
71490;SDS011;59307;50.060;9.150;2023-05-10T10:24:05;2.83;;;1.43;;
71490;SDS011;59307;50.060;9.150;2023-05-10T10:26:33;3.77;;;1.77;;
71490;SDS011;59307;50.060;9.150;2023-05-10T10:31:39;3.33;;;1.85;;
71490;SDS011;59307;50.060;9.150;2023-05-10T10:34:06;2.97;;;1.80;;
71490;SDS011;59307;50.060;9.150;2023-05-10T10:36:32;4.93;;;2.00;;
71490;SDS011;59307;50.060;9.150;2023-05-10T10:38:59;4.85;;;2.05;;
71490;SDS011;59307;50.060;9.150;2023-05-10T10:41:32;4.18;;;1.90;;
71490;SDS011;59307;50.060;9.150;2023-05-10T10:49:25;7.40;;;2.10;;
71490;SDS011;59307;50.060;9.150;2023-05-10T10:54:35;3.17;;;1.90;;
71490;SDS011;59307;50.060;9.150;2023-05-10T10:57:12;3.83;;;1.73;;
71490;SDS011;59307;50.060;9.150;2023-05-10T10:59:42;2.55;;;1.60;;
71490;SDS011;59307;50.060;9.150;2023-05-10T11:02:08;4.97;;;2.20;;
71490;SDS011;59307;50.060;9.150;2023-05-10T11:04:43;3.70;;;1.50;;
71490;SDS011;59307;50.060;9.150;2023-05-10T11:07:17;2.22;;;1.25;;
71490;SDS011;59307;50.060;9.150;2023-05-10T11:09:43;3.17;;;1.10;;
71490;SDS011;59307;50.060;9.150;2023-05-10T11:12:08;1.90;;;1.27;;
71490;SDS011;59307;50.060;9.150;2023-05-10T11:14:33;2.70;;;0.90;;
71490;SDS011;59307;50.060;9.150;2023-05-10T11:16:58;2.63;;;1.10;;
71490;SDS011;59307;50.060;9.150;2023-05-10T11:19:27;1.13;;;0.90;;
71490;SDS011;59307;50.060;9.150;2023-05-10T11:24:29;1.10;;;0.80;;
71490;SDS011;59307;50.060;9.150;2023-05-10T11:26:55;2.33;;;0.70;;
71490;SDS011;59307;50.060;9.150;2023-05-10T11:29:20;1.80;;;1.00;;
71490;SDS011;59307;50.060;9.150;2023-05-10T11:31:45;2.00;;;0.90;;
71490;SDS011;59307;50.060;9.150;2023-05-10T11:34:11;2.92;;;1.00;;
71490;SDS011;59307;50.060;9.150;2023-05-10T11:36:39;1.00;;;0.90;;
71490;SDS011;59307;50.060;9.150;2023-05-10T11:39:05;1.20;;;0.90;;
71490;SDS011;59307;50.060;9.150;2023-05-10T11:41:30;1.40;;;1.10;;
71490;SDS011;59307;50.060;9.150;2023-05-10T11:43:56;1.58;;;1.00;;
71490;SDS011;59307;50.060;9.150;2023-05-10T11:46:23;1.67;;;1.05;;
71490;SDS011;59307;50.060;9.150;2023-05-10T11:48:52;3.00;;;1.35;;
71490;SDS011;59307;50.060;9.150;2023-05-10T11:51:21;2.07;;;1.30;;
71490;SDS011;59307;50.060;9.150;2023-05-10T11:53:47;2.80;;;1.30;;
71490;SDS011;59307;50.060;9.150;2023-05-10T11:56:12;1.50;;;1.20;;
71490;SDS011;59307;50.060;9.150;2023-05-10T11:58:38;3.50;;;1.47;;
71490;SDS011;59307;50.060;9.150;2023-05-10T12:01:04;1.13;;;0.90;;
71490;SDS011;59307;50.060;9.150;2023-05-10T12:03:30;2.88;;;1.10;;
71490;SDS011;59307;50.060;9.150;2023-05-10T12:05:55;1.90;;;1.07;;
71490;SDS011;59307;50.060;9.150;2023-05-10T12:08:22;3.25;;;1.30;;
71490;SDS011;59307;50.060;9.150;2023-05-10T12:10:47;2.40;;;1.30;;
71490;SDS011;59307;50.060;9.150;2023-05-10T12:13:13;3.30;;;1.10;;
71490;SDS011;59307;50.060;9.150;2023-05-10T12:15:41;2.13;;;1.00;;
71490;SDS011;59307;50.060;9.150;2023-05-10T12:18:10;1.60;;;1.30;;
71490;SDS011;59307;50.060;9.150;2023-05-10T12:20:36;2.83;;;1.23;;
71490;SDS011;59307;50.060;9.150;2023-05-10T12:23:01;2.27;;;1.50;;
71490;SDS011;59307;50.060;9.150;2023-05-10T12:25:32;4.20;;;1.50;;
71490;SDS011;59307;50.060;9.150;2023-05-10T12:27:58;2.40;;;1.20;;
71490;SDS011;59307;50.060;9.150;2023-05-10T12:30:26;1.50;;;1.20;;
71490;SDS011;59307;50.060;9.150;2023-05-10T12:32:52;3.00;;;1.55;;
71490;SDS011;59307;50.060;9.150;2023-05-10T12:35:17;2.25;;;1.10;;
71490;SDS011;59307;50.060;9.150;2023-05-10T12:37:46;4.38;;;1.23;;
71490;SDS011;59307;50.060;9.150;2023-05-10T12:40:12;1.60;;;1.27;;
71490;SDS011;59307;50.060;9.150;2023-05-10T12:42:37;3.67;;;1.20;;
71490;SDS011;59307;50.060;9.150;2023-05-10T12:45:03;2.25;;;1.23;;
71490;SDS011;59307;50.060;9.150;2023-05-10T12:47:29;2.77;;;1.27;;
71490;SDS011;59307;50.060;9.150;2023-05-10T12:49:54;2.33;;;1.20;;
71490;SDS011;59307;50.060;9.150;2023-05-10T12:52:19;3.00;;;1.20;;
71490;SDS011;59307;50.060;9.150;2023-05-10T12:54:45;2.50;;;1.37;;
71490;SDS011;59307;50.060;9.150;2023-05-10T12:57:10;5.30;;;1.17;;
71490;SDS011;59307;50.060;9.150;2023-05-10T12:59:35;3.57;;;1.23;;
71490;SDS011;59307;50.060;9.150;2023-05-10T13:02:00;2.60;;;1.10;;
71490;SDS011;59307;50.060;9.150;2023-05-10T13:04:26;2.73;;;1.00;;
71490;SDS011;59307;50.060;9.150;2023-05-10T13:06:51;1.23;;;1.00;;
71490;SDS011;59307;50.060;9.150;2023-05-10T13:09:16;1.97;;;1.20;;
71490;SDS011;59307;50.060;9.150;2023-05-10T13:11:41;2.20;;;0.90;;
71490;SDS011;59307;50.060;9.150;2023-05-10T13:14:06;5.80;;;1.20;;
71490;SDS011;59307;50.060;9.150;2023-05-10T13:16:32;1.57;;;1.13;;
71490;SDS011;59307;50.060;9.150;2023-05-10T13:18:57;1.37;;;1.13;;
71490;SDS011;59307;50.060;9.150;2023-05-10T13:21:23;1.83;;;1.10;;
71490;SDS011;59307;50.060;9.150;2023-05-10T13:23:49;2.10;;;1.20;;
71490;SDS011;59307;50.060;9.150;2023-05-10T13:26:15;1.53;;;1.10;;
71490;SDS011;59307;50.060;9.150;2023-05-10T13:28:40;3.77;;;1.30;;
71490;SDS011;59307;50.060;9.150;2023-05-10T13:31:05;3.40;;;1.30;;
71490;SDS011;59307;50.060;9.150;2023-05-10T13:33:30;5.07;;;1.27;;
71490;SDS011;59307;50.060;9.150;2023-05-10T13:35:55;2.10;;;1.10;;
71490;SDS011;59307;50.060;9.150;2023-05-10T13:38:21;4.57;;;1.30;;
71490;SDS011;59307;50.060;9.150;2023-05-10T13:40:46;1.60;;;1.00;;
71490;SDS011;59307;50.060;9.150;2023-05-10T13:43:11;3.60;;;1.00;;
71490;SDS011;59307;50.060;9.150;2023-05-10T13:45:36;1.80;;;1.10;;
71490;SDS011;59307;50.060;9.150;2023-05-10T13:48:01;2.23;;;0.90;;
71490;SDS011;59307;50.060;9.150;2023-05-10T13:50:27;2.23;;;0.90;;
71490;SDS011;59307;50.060;9.150;2023-05-10T13:52:52;2.53;;;0.93;;
71490;SDS011;59307;50.060;9.150;2023-05-10T13:55:17;3.17;;;1.00;;
71490;SDS011;59307;50.060;9.150;2023-05-10T13:57:42;1.00;;;0.83;;
71490;SDS011;59307;50.060;9.150;2023-05-10T14:00:08;1.30;;;0.93;;
71490;SDS011;59307;50.060;9.150;2023-05-10T14:02:33;5.23;;;1.00;;
71490;SDS011;59307;50.060;9.150;2023-05-10T14:04:59;2.97;;;1.03;;
71490;SDS011;59307;50.060;9.150;2023-05-10T14:07:25;2.95;;;1.00;;
71490;SDS011;59307;50.060;9.150;2023-05-10T14:09:50;1.30;;;0.90;;
71490;SDS011;59307;50.060;9.150;2023-05-10T14:12:15;2.53;;;1.00;;
71490;SDS011;59307;50.060;9.150;2023-05-10T14:14:41;1.00;;;0.82;;
71490;SDS011;59307;50.060;9.150;2023-05-10T14:17:06;1.27;;;0.80;;
71490;SDS011;59307;50.060;9.150;2023-05-10T14:19:31;1.80;;;0.90;;
71490;SDS011;59307;50.060;9.150;2023-05-10T14:21:58;1.53;;;0.80;;
71490;SDS011;59307;50.060;9.150;2023-05-10T14:24:24;2.73;;;1.00;;
71490;SDS011;59307;50.060;9.150;2023-05-10T14:26:49;1.10;;;0.90;;
71490;SDS011;59307;50.060;9.150;2023-05-10T14:29:18;1.00;;;0.82;;
71490;SDS011;59307;50.060;9.150;2023-05-10T14:31:43;1.27;;;0.87;;
71490;SDS011;59307;50.060;9.150;2023-05-10T14:34:08;1.77;;;0.90;;
71490;SDS011;59307;50.060;9.150;2023-05-10T14:36:34;1.63;;;1.10;;
71490;SDS011;59307;50.060;9.150;2023-05-10T14:38:59;2.93;;;0.77;;
71490;SDS011;59307;50.060;9.150;2023-05-10T14:41:24;1.60;;;0.87;;
71490;SDS011;59307;50.060;9.150;2023-05-10T14:43:49;2.40;;;1.07;;
71490;SDS011;59307;50.060;9.150;2023-05-10T14:46:14;3.60;;;0.90;;
71490;SDS011;59307;50.060;9.150;2023-05-10T14:48:40;3.08;;;0.88;;
71490;SDS011;59307;50.060;9.150;2023-05-10T14:51:05;2.47;;;0.90;;
71490;SDS011;59307;50.060;9.150;2023-05-10T14:53:31;2.28;;;1.02;;
71490;SDS011;59307;50.060;9.150;2023-05-10T14:55:57;3.87;;;1.33;;
71490;SDS011;59307;50.060;9.150;2023-05-10T14:58:22;2.17;;;1.03;;
71490;SDS011;59307;50.060;9.150;2023-05-10T15:00:47;2.85;;;1.10;;
71490;SDS011;59307;50.060;9.150;2023-05-10T15:03:13;3.97;;;1.20;;
71490;SDS011;59307;50.060;9.150;2023-05-10T15:05:38;2.10;;;1.10;;
71490;SDS011;59307;50.060;9.150;2023-05-10T15:08:04;2.47;;;1.20;;
71490;SDS011;59307;50.060;9.150;2023-05-10T15:10:30;2.55;;;1.10;;
71490;SDS011;59307;50.060;9.150;2023-05-10T15:12:55;1.67;;;1.00;;
71490;SDS011;59307;50.060;9.150;2023-05-10T15:15:20;2.67;;;1.10;;
71490;SDS011;59307;50.060;9.150;2023-05-10T15:17:46;2.13;;;1.00;;